createdAt,value
2023-05-07T00:01:38.400Z,81.93
2023-05-07T00:04:07.134Z,85.30
2023-05-07T00:06:35.536Z,90.05
2023-05-07T00:09:04.688Z,91.83
2023-05-07T00:11:34.136Z,90.49
2023-05-07T00:14:03.436Z,88.66
2023-05-07T00:16:33.267Z,86.50
2023-05-07T00:19:01.575Z,85.41
2023-05-07T00:21:29.880Z,90.10
2023-05-07T00:23:58.122Z,91.98
2023-05-07T00:26:26.377Z,96.70
2023-05-07T00:28:54.704Z,95.94
2023-05-07T00:31:22.998Z,94.87
2023-05-07T00:33:52.658Z,93.46
2023-05-07T00:36:21.153Z,93.67
2023-05-07T00:38:49.509Z,98.38
2023-05-07T00:41:17.914Z,100.00
2023-05-07T00:43:46.557Z,97.65
2023-05-07T00:46:17.032Z,95.60
2023-05-07T00:48:45.471Z,93.56
2023-05-07T00:51:15.363Z,91.79
2023-05-07T00:53:43.707Z,91.34
2023-05-07T00:56:12.356Z,92.00
2023-05-07T00:58:40.822Z,92.14
2023-05-07T01:01:09.201Z,97.05
2023-05-07T01:03:37.619Z,97.20
2023-05-07T01:06:09.829Z,94.55
2023-05-07T01:08:40.956Z,94.56
2023-05-07T01:11:10.069Z,99.66
2023-05-07T01:13:39.220Z,97.57
2023-05-07T01:16:08.512Z,98.12
2023-05-07T01:18:36.890Z,96.01
2023-05-07T01:21:07.002Z,94.17
2023-05-07T01:23:37.900Z,92.77
2023-05-07T01:26:06.142Z,92.99
2023-05-07T01:28:34.438Z,94.80
2023-05-07T01:31:05.390Z,94.96
2023-05-07T01:33:36.861Z,95.34
2023-05-07T01:36:07.853Z,96.08
2023-05-07T01:38:38.656Z,94.21
2023-05-07T01:41:07.397Z,100.00
2023-05-07T01:43:35.914Z,100.00
2023-05-07T01:46:06.007Z,100.00
2023-05-07T01:48:35.723Z,100.00
2023-05-07T01:51:04.488Z,100.00
2023-05-07T01:53:39.583Z,100.00
2023-05-07T01:56:08.553Z,100.00
2023-05-07T01:58:36.873Z,100.00
2023-05-07T02:01:05.191Z,100.00
2023-05-07T02:03:33.588Z,98.64
2023-05-07T02:06:02.571Z,98.90
2023-05-07T02:08:31.245Z,97.48
2023-05-07T02:11:00.950Z,97.41
2023-05-07T02:13:31.713Z,96.00
2023-05-07T02:16:00.064Z,95.31
2023-05-07T02:18:28.719Z,94.88
2023-05-07T02:20:57.142Z,94.43
2023-05-07T02:23:25.818Z,98.49
2023-05-07T02:25:54.055Z,100.00
2023-05-07T02:28:23.735Z,100.00
2023-05-07T02:30:51.989Z,100.00
2023-05-07T02:33:20.522Z,100.00
2023-05-07T02:35:48.738Z,100.00
2023-05-07T02:38:17.032Z,100.00
2023-05-07T02:40:45.336Z,100.00
2023-05-07T02:43:13.602Z,100.00
2023-05-07T02:45:44.423Z,99.20
2023-05-07T02:48:12.751Z,99.08
2023-05-07T02:50:41.196Z,100.00
2023-05-07T02:53:09.513Z,100.00
2023-05-07T02:55:37.830Z,100.00
2023-05-07T02:58:06.089Z,100.00
2023-05-07T03:00:34.516Z,100.00
2023-05-07T03:03:04.189Z,100.00
2023-05-07T03:05:32.923Z,100.00
2023-05-07T03:08:01.158Z,100.00
2023-05-07T03:10:29.399Z,100.00
2023-05-07T03:12:57.713Z,100.00
2023-05-07T03:15:25.974Z,100.00
2023-05-07T03:17:54.311Z,100.00
2023-05-07T03:20:23.964Z,100.00
2023-05-07T03:22:52.283Z,100.00
2023-05-07T03:25:20.720Z,100.00
2023-05-07T03:27:49.122Z,100.00
2023-05-07T03:30:17.428Z,100.00
2023-05-07T03:32:45.843Z,100.00
2023-05-07T03:35:14.177Z,100.00
2023-05-07T03:37:43.818Z,100.00
2023-05-07T03:40:13.732Z,100.00
2023-05-07T03:42:42.334Z,100.00
2023-05-07T03:45:11.397Z,100.00
2023-05-07T03:47:39.966Z,100.00
2023-05-07T03:50:08.794Z,100.00
2023-05-07T03:52:37.145Z,100.00
2023-05-07T03:55:08.074Z,100.00
2023-05-07T03:57:36.414Z,100.00
2023-05-07T04:00:05.645Z,100.00
2023-05-07T04:02:35.190Z,100.00
2023-05-07T04:05:03.553Z,100.00
2023-05-07T04:07:31.820Z,100.00
2023-05-07T04:10:00.177Z,100.00
2023-05-07T04:12:29.881Z,100.00
2023-05-07T04:14:58.267Z,100.00
2023-05-07T04:17:26.621Z,99.97
2023-05-07T04:19:54.989Z,99.51
2023-05-07T04:22:23.183Z,99.14
2023-05-07T04:24:51.494Z,97.54
2023-05-07T04:27:19.904Z,99.84
2023-05-07T04:29:49.541Z,100.00
2023-05-07T04:32:18.803Z,100.00
2023-05-07T04:34:47.277Z,100.00
2023-05-07T04:37:15.566Z,100.00
2023-05-07T04:39:43.807Z,100.00
2023-05-07T04:42:16.857Z,100.00
2023-05-07T04:44:46.229Z,100.00
2023-05-07T04:47:16.107Z,100.00
2023-05-07T04:49:44.438Z,100.00
2023-05-07T04:52:12.666Z,100.00
2023-05-07T04:54:40.917Z,100.00
2023-05-07T04:57:09.579Z,100.00
2023-05-07T04:59:37.824Z,100.00
2023-05-07T05:02:06.563Z,100.00
2023-05-07T05:04:36.306Z,100.00
2023-05-07T05:07:05.743Z,100.00
2023-05-07T05:09:34.142Z,100.00
2023-05-07T05:12:15.790Z,100.00
2023-05-07T05:14:44.137Z,100.00
2023-05-07T05:17:17.807Z,100.00
2023-05-07T05:19:47.432Z,100.00
2023-05-07T05:22:15.707Z,100.00
2023-05-07T05:24:43.960Z,100.00
2023-05-07T05:27:12.305Z,100.00
2023-05-07T05:29:40.581Z,99.65
2023-05-07T05:32:08.908Z,100.00
2023-05-07T05:34:37.254Z,98.45
2023-05-07T05:37:07.194Z,96.20
2023-05-07T05:39:35.530Z,99.73
2023-05-07T05:42:03.970Z,100.00
2023-05-07T05:44:32.164Z,97.24
2023-05-07T05:47:00.617Z,96.32
2023-05-07T05:49:28.859Z,96.24
2023-05-07T05:51:57.277Z,96.79
2023-05-07T05:54:26.923Z,93.39
2023-05-07T05:56:55.334Z,94.70
2023-05-07T05:59:23.678Z,95.29
2023-05-07T06:01:52.269Z,90.00
2023-05-07T06:04:20.587Z,88.36
2023-05-07T06:06:48.871Z,88.76
2023-05-07T06:09:17.141Z,84.53
2023-05-07T06:11:46.865Z,82.03
2023-05-07T06:14:15.293Z,82.68
2023-05-07T06:16:43.651Z,80.08
2023-05-07T06:19:12.021Z,78.64
2023-05-07T06:21:41.578Z,78.69
2023-05-07T06:24:10.169Z,75.91
2023-05-07T06:26:38.358Z,73.60
2023-05-07T06:29:08.741Z,74.29
2023-05-07T06:31:37.165Z,73.03
2023-05-07T06:34:06.055Z,73.10
2023-05-07T06:36:34.333Z,69.42
2023-05-07T06:39:02.599Z,66.37
2023-05-07T06:41:30.820Z,67.68
2023-05-07T06:43:58.995Z,66.03
2023-05-07T06:46:29.566Z,63.70
2023-05-07T06:48:58.606Z,63.34
2023-05-07T06:51:26.862Z,64.26
2023-05-07T06:53:55.195Z,62.43
2023-05-07T06:56:24.063Z,61.48
2023-05-07T06:58:52.313Z,61.65
2023-05-07T07:01:21.134Z,60.56
2023-05-07T07:03:52.397Z,58.75
2023-05-07T07:06:21.185Z,60.34
2023-05-07T07:08:49.578Z,58.94
2023-05-07T07:11:18.117Z,57.30
2023-05-07T07:13:46.380Z,56.20
2023-05-07T07:16:14.736Z,55.23
2023-05-07T07:18:43.165Z,55.02
2023-05-07T07:21:13.004Z,53.52
2023-05-07T07:23:41.593Z,53.37
2023-05-07T07:26:09.852Z,53.83
2023-05-07T07:28:45.257Z,52.49
2023-05-07T07:31:15.596Z,50.46
2023-05-07T07:33:43.942Z,52.10
2023-05-07T07:36:13.651Z,51.13
2023-05-07T07:38:41.907Z,50.98
2023-05-07T07:41:10.725Z,50.91
2023-05-07T07:43:39.018Z,51.83
2023-05-07T07:46:07.329Z,50.38
2023-05-07T07:48:35.725Z,50.29
2023-05-07T07:51:04.021Z,49.63
2023-05-07T07:53:33.692Z,48.55
2023-05-07T07:56:03.499Z,47.99
2023-05-07T07:58:33.523Z,46.71
2023-05-07T08:01:01.745Z,45.38
2023-05-07T08:03:33.049Z,45.16
2023-05-07T08:06:01.368Z,46.31
2023-05-07T08:08:29.580Z,46.12
2023-05-07T08:10:59.556Z,46.01
2023-05-07T08:13:28.105Z,47.63
2023-05-07T08:15:56.490Z,45.17
2023-05-07T08:18:25.968Z,44.26
2023-05-07T08:20:54.408Z,43.18
2023-05-07T08:23:22.886Z,44.01
2023-05-07T08:25:52.389Z,43.01
2023-05-07T08:28:22.619Z,40.86
2023-05-07T08:30:50.902Z,41.15
2023-05-07T08:33:19.289Z,41.65
2023-05-07T08:35:47.527Z,41.60
2023-05-07T08:38:15.785Z,41.46
2023-05-07T08:40:44.036Z,40.16
2023-05-07T08:43:15.426Z,39.73
2023-05-07T08:45:48.137Z,41.06
2023-05-07T08:48:18.758Z,39.67
2023-05-07T08:50:47.297Z,38.19
2023-05-07T08:53:17.551Z,36.69
2023-05-07T08:55:46.570Z,36.37
2023-05-07T08:58:14.909Z,39.19
2023-05-07T09:00:44.768Z,36.70
2023-05-07T09:03:14.032Z,37.47
2023-05-07T09:05:42.731Z,37.27
2023-05-07T09:08:11.204Z,36.89
2023-05-07T09:10:39.637Z,38.12
2023-05-07T09:13:08.083Z,37.50
2023-05-07T09:15:36.454Z,37.72
2023-05-07T09:18:06.615Z,36.55
2023-05-07T09:20:35.015Z,37.86
2023-05-07T09:23:03.266Z,35.41
2023-05-07T09:25:32.814Z,36.06
2023-05-07T09:28:01.932Z,33.93
2023-05-07T09:30:31.454Z,33.12
2023-05-07T09:33:01.571Z,33.03
2023-05-07T09:35:31.773Z,33.54
2023-05-07T09:38:03.602Z,34.12
2023-05-07T09:40:33.252Z,32.77
2023-05-07T09:43:12.898Z,33.38
2023-05-07T09:45:41.303Z,32.49
2023-05-07T09:48:10.949Z,31.40
2023-05-07T09:50:48.264Z,31.71
2023-05-07T09:53:17.625Z,31.12
2023-05-07T09:55:46.202Z,29.47
2023-05-07T09:58:15.241Z,30.76
2023-05-07T10:00:44.885Z,30.44
2023-05-07T10:03:14.107Z,30.50
2023-05-07T10:05:45.660Z,30.42
2023-05-07T10:08:32.340Z,31.55
2023-05-07T10:11:01.957Z,32.20
2023-05-07T10:13:31.124Z,31.30
2023-05-07T10:15:59.954Z,32.63
2023-05-07T10:18:31.118Z,30.66
2023-05-07T10:21:07.394Z,29.51
2023-05-07T10:23:36.483Z,29.18
2023-05-07T10:26:07.693Z,30.11
2023-05-07T10:28:40.777Z,28.32
2023-05-07T10:31:25.966Z,27.16
2023-05-07T10:33:57.543Z,25.02
2023-05-07T10:36:28.907Z,25.70
2023-05-07T10:38:57.966Z,27.21
2023-05-07T10:41:26.293Z,31.81
2023-05-07T10:43:54.518Z,29.84
2023-05-07T10:46:24.691Z,29.88
2023-05-07T10:49:12.636Z,28.60
2023-05-07T10:51:42.414Z,27.64
2023-05-07T10:54:28.560Z,27.84
2023-05-07T10:56:56.928Z,26.70
2023-05-07T10:59:43.057Z,28.64
2023-05-07T11:02:12.540Z,28.38
2023-05-07T11:04:42.956Z,25.48
2023-05-07T11:07:31.151Z,25.51
2023-05-07T11:10:05.809Z,25.96
2023-05-07T11:12:54.081Z,26.93
2023-05-07T11:15:45.535Z,26.47
2023-05-07T11:18:18.416Z,27.60
2023-05-07T11:20:57.878Z,27.59
2023-05-07T11:24:12.001Z,28.06
2023-05-07T11:26:50.169Z,28.34
2023-05-07T11:29:22.504Z,26.67
2023-05-07T11:31:53.130Z,27.56
2023-05-07T11:34:25.163Z,26.75
2023-05-07T11:36:54.178Z,29.69
2023-05-07T11:39:30.856Z,29.66
2023-05-07T11:42:01.155Z,28.07
2023-05-07T11:44:43.810Z,27.76
2023-05-07T11:47:13.111Z,28.14
2023-05-07T11:49:41.857Z,28.82
2023-05-07T11:52:10.162Z,28.74
2023-05-07T11:54:39.148Z,29.83
2023-05-07T11:57:09.478Z,29.10
2023-05-07T11:59:42.331Z,29.42
2023-05-07T12:02:11.003Z,29.33
2023-05-07T12:04:40.950Z,28.69
2023-05-07T12:07:14.073Z,29.41
2023-05-07T12:09:42.623Z,28.94
2023-05-07T12:12:12.647Z,30.46
2023-05-07T12:14:41.496Z,31.64
2023-05-07T12:17:10.330Z,32.03
2023-05-07T12:19:39.823Z,31.19
2023-05-07T12:22:09.893Z,30.69
2023-05-07T12:24:47.999Z,31.61
2023-05-07T12:27:19.037Z,33.06
2023-05-07T12:29:48.557Z,32.74
2023-05-07T12:32:17.688Z,31.51
2023-05-07T12:34:46.420Z,30.94
2023-05-07T12:37:14.954Z,30.67
2023-05-07T12:39:49.456Z,29.47
2023-05-07T12:42:25.041Z,29.18
2023-05-07T12:44:53.460Z,29.47
2023-05-07T12:47:23.640Z,29.47
2023-05-07T12:49:52.704Z,29.87
2023-05-07T12:52:21.208Z,29.08
2023-05-07T12:54:50.472Z,28.39
2023-05-07T12:57:22.752Z,29.71
2023-05-07T12:59:51.008Z,30.18
2023-05-07T13:02:19.279Z,31.45
2023-05-07T13:04:48.928Z,30.38
2023-05-07T13:07:17.169Z,28.90
2023-05-07T13:09:45.494Z,31.04
2023-05-07T13:12:13.715Z,30.79
2023-05-07T13:14:43.384Z,31.44
2023-05-07T13:17:11.551Z,32.36
2023-05-07T13:19:39.921Z,32.67
2023-05-07T13:22:08.158Z,32.01
2023-05-07T13:24:36.436Z,32.15
2023-05-07T13:27:05.237Z,31.39
2023-05-07T13:29:33.524Z,30.69
2023-05-07T13:32:03.215Z,30.83
2023-05-07T13:34:31.549Z,30.31
2023-05-07T13:36:59.775Z,31.22
2023-05-07T13:39:28.122Z,32.17
2023-05-07T13:41:56.436Z,31.35
2023-05-07T13:44:24.675Z,32.76
2023-05-07T13:46:53.530Z,33.59
2023-05-07T13:49:23.161Z,30.43
2023-05-07T13:51:51.367Z,32.33
2023-05-07T13:54:19.730Z,30.40
2023-05-07T13:56:48.026Z,31.54
2023-05-07T13:59:16.396Z,30.58
2023-05-07T14:01:44.773Z,30.28
2023-05-07T14:04:13.058Z,31.17
2023-05-07T14:06:42.832Z,32.16
2023-05-07T14:09:13.302Z,31.54
2023-05-07T14:11:41.760Z,32.30
2023-05-07T14:14:11.990Z,33.00
2023-05-07T14:16:40.384Z,33.67
2023-05-07T14:19:08.647Z,34.04
2023-05-07T14:21:37.149Z,34.04
2023-05-07T14:24:08.286Z,36.48
2023-05-07T14:26:36.962Z,37.99
2023-05-07T14:29:05.423Z,39.17
2023-05-07T14:31:34.587Z,39.55
2023-05-07T14:34:03.491Z,40.02
2023-05-07T14:36:32.916Z,39.44
2023-05-07T14:39:01.375Z,39.05
2023-05-07T14:41:31.020Z,37.54
2023-05-07T14:44:00.131Z,38.25
2023-05-07T14:46:28.473Z,37.57
2023-05-07T14:48:56.802Z,38.56
2023-05-07T14:51:25.196Z,38.37
2023-05-07T14:53:53.433Z,38.50
2023-05-07T14:56:21.679Z,39.18
2023-05-07T14:58:51.660Z,41.00
2023-05-07T15:01:20.007Z,42.10
2023-05-07T15:03:48.423Z,45.23
2023-05-07T15:06:16.941Z,45.15
2023-05-07T15:08:45.149Z,46.70
2023-05-07T15:11:13.472Z,47.26
2023-05-07T15:13:41.732Z,47.81
2023-05-07T15:16:11.416Z,47.68
2023-05-07T15:18:39.725Z,48.29
2023-05-07T15:21:08.058Z,48.46
2023-05-07T15:23:36.443Z,49.16
2023-05-07T15:26:04.765Z,49.09
2023-05-07T15:28:33.160Z,49.07
2023-05-07T15:31:01.673Z,48.78
2023-05-07T15:33:31.526Z,48.83
2023-05-07T15:36:00.465Z,50.05
2023-05-07T15:38:28.711Z,50.27
2023-05-07T15:40:56.991Z,49.74
2023-05-07T15:43:26.042Z,50.95
2023-05-07T15:45:54.520Z,51.59
2023-05-07T15:48:22.850Z,53.17
2023-05-07T15:50:52.525Z,54.33
2023-05-07T15:53:20.841Z,54.74
2023-05-07T15:55:49.623Z,54.70
2023-05-07T15:58:20.477Z,56.05
2023-05-07T16:00:48.893Z,56.63
2023-05-07T16:03:19.104Z,57.01
2023-05-07T16:05:47.653Z,58.82
2023-05-07T16:08:17.333Z,58.11
2023-05-07T16:10:45.601Z,58.56
2023-05-07T16:13:13.836Z,60.22
2023-05-07T16:15:42.181Z,61.61
2023-05-07T16:18:10.868Z,61.63
2023-05-07T16:20:39.394Z,62.40
2023-05-07T16:23:07.642Z,61.92
2023-05-07T16:25:37.403Z,63.08
2023-05-07T16:28:06.053Z,62.74
2023-05-07T16:30:34.339Z,63.66
2023-05-07T16:33:03.126Z,63.79
2023-05-07T16:35:31.555Z,63.11
2023-05-07T16:37:59.867Z,64.75
2023-05-07T16:40:28.448Z,64.13
2023-05-07T16:42:58.157Z,65.66
2023-05-07T16:45:26.900Z,66.01
2023-05-07T16:47:56.815Z,66.64
2023-05-07T16:50:25.149Z,65.75
2023-05-07T16:52:56.317Z,66.57
2023-05-07T16:55:24.620Z,68.26
2023-05-07T16:57:53.046Z,67.60
2023-05-07T17:00:22.879Z,66.56
2023-05-07T17:02:51.445Z,69.15
2023-05-07T17:05:19.948Z,69.87
2023-05-07T17:07:48.249Z,70.22
2023-05-07T17:10:16.538Z,70.94
2023-05-07T17:12:44.920Z,72.64
2023-05-07T17:15:13.975Z,73.00
2023-05-07T17:17:43.876Z,71.65
2023-05-07T17:20:13.905Z,73.23
2023-05-07T17:22:42.445Z,73.22
2023-05-07T17:25:12.986Z,77.12
2023-05-07T17:27:42.732Z,78.64
2023-05-07T17:30:12.796Z,80.83
2023-05-07T17:32:41.566Z,81.35
2023-05-07T17:35:11.639Z,81.86
2023-05-07T17:37:40.261Z,79.32
2023-05-07T17:40:09.761Z,83.14
2023-05-07T17:42:38.109Z,81.65
2023-05-07T17:45:07.182Z,82.78
2023-05-07T17:47:35.845Z,83.14
2023-05-07T17:50:06.080Z,81.16
2023-05-07T17:52:36.690Z,79.00
2023-05-07T17:55:05.105Z,79.97
2023-05-07T17:57:35.431Z,80.47
2023-05-07T18:00:04.936Z,80.08
2023-05-07T18:02:33.371Z,78.78
2023-05-07T18:05:01.831Z,77.31
2023-05-07T18:07:30.224Z,75.60
2023-05-07T18:09:59.889Z,76.56
2023-05-07T18:12:28.268Z,76.65
2023-05-07T18:14:56.592Z,76.51
2023-05-07T18:17:26.836Z,78.61
2023-05-07T18:20:09.148Z,78.46
2023-05-07T18:22:37.528Z,82.03
2023-05-07T18:25:08.564Z,78.91
2023-05-07T18:27:36.922Z,79.17
2023-05-07T18:30:06.845Z,78.30
2023-05-07T18:32:35.662Z,78.28
2023-05-07T18:35:04.041Z,77.14
2023-05-07T18:37:32.406Z,76.46
2023-05-07T18:40:04.012Z,77.01
2023-05-07T18:42:36.263Z,77.59
2023-05-07T18:45:06.011Z,77.07
2023-05-07T18:47:34.493Z,77.69
2023-05-07T18:50:02.767Z,77.36
2023-05-07T18:52:31.177Z,77.11
2023-05-07T18:54:59.554Z,79.23
2023-05-07T18:57:29.637Z,80.28
2023-05-07T18:59:59.598Z,81.27
2023-05-07T19:02:27.873Z,80.92
2023-05-07T19:04:56.246Z,81.23
2023-05-07T19:07:24.624Z,80.51
2023-05-07T19:10:04.135Z,79.86
2023-05-07T19:12:33.505Z,80.86
2023-05-07T19:15:03.344Z,82.50
2023-05-07T19:17:31.641Z,83.05
2023-05-07T19:20:00.000Z,84.00
2023-05-07T19:22:28.584Z,82.04
2023-05-07T19:24:57.636Z,82.01
2023-05-07T19:27:29.176Z,82.97
2023-05-07T19:29:58.008Z,82.15
2023-05-07T19:32:30.516Z,81.79
2023-05-07T19:34:58.851Z,83.14
2023-05-07T19:37:28.039Z,83.54
2023-05-07T19:39:56.300Z,90.15
2023-05-07T19:42:24.625Z,92.55
2023-05-07T19:44:52.943Z,92.70
2023-05-07T19:47:21.282Z,90.53
2023-05-07T19:49:51.158Z,89.59
2023-05-07T19:52:19.416Z,89.93
2023-05-07T19:54:47.618Z,89.39
2023-05-07T19:57:17.904Z,92.55
2023-05-07T19:59:48.148Z,92.48
2023-05-07T20:02:16.652Z,95.35
2023-05-07T20:04:45.128Z,93.20
2023-05-07T20:07:14.807Z,98.05
2023-05-07T20:09:43.105Z,97.55
2023-05-07T20:12:11.392Z,97.16
2023-05-07T20:14:39.594Z,96.38
2023-05-07T20:17:08.090Z,93.95
2023-05-07T20:19:36.404Z,95.30
2023-05-07T20:22:04.861Z,97.84
2023-05-07T20:24:39.216Z,98.15
2023-05-07T20:27:07.561Z,97.05
2023-05-07T20:29:36.125Z,94.17
2023-05-07T20:32:04.559Z,91.38
2023-05-07T20:34:32.894Z,89.62
2023-05-07T20:37:01.906Z,92.67
2023-05-07T20:39:30.233Z,90.37
2023-05-07T20:41:59.820Z,89.20
2023-05-07T20:44:28.141Z,88.28
2023-05-07T20:46:56.470Z,87.23
2023-05-07T20:49:24.805Z,86.47
2023-05-07T20:51:53.079Z,88.23
2023-05-07T20:54:23.172Z,88.05
2023-05-07T20:56:51.374Z,89.37
2023-05-07T20:59:21.192Z,90.05
2023-05-07T21:01:49.584Z,90.44
2023-05-07T21:04:17.936Z,87.72
2023-05-07T21:06:46.250Z,88.83
2023-05-07T21:09:14.543Z,89.98
2023-05-07T21:11:42.723Z,91.98
2023-05-07T21:14:10.948Z,90.66
2023-05-07T21:16:42.791Z,89.10
2023-05-07T21:19:11.140Z,93.28
2023-05-07T21:21:39.466Z,95.87
2023-05-07T21:24:08.712Z,99.14
2023-05-07T21:26:36.981Z,97.21
2023-05-07T21:29:05.252Z,95.14
2023-05-07T21:31:33.640Z,94.40
2023-05-07T21:34:03.686Z,94.27
2023-05-07T21:36:31.856Z,94.50
2023-05-07T21:39:00.182Z,99.91
2023-05-07T21:41:28.433Z,100.00
2023-05-07T21:43:56.595Z,100.00
2023-05-07T21:46:24.920Z,100.00
2023-05-07T21:48:53.166Z,98.22
2023-05-07T21:51:22.800Z,98.87
2023-05-07T21:53:51.120Z,97.34
2023-05-07T21:56:19.332Z,94.92
2023-05-07T21:58:48.670Z,93.71
2023-05-07T22:01:16.975Z,92.07
2023-05-07T22:03:45.363Z,90.82
2023-05-07T22:06:13.685Z,91.93
2023-05-07T22:08:43.369Z,92.56
2023-05-07T22:11:11.567Z,91.45
2023-05-07T22:13:39.835Z,91.53
2023-05-07T22:16:09.445Z,91.19
2023-05-07T22:18:37.704Z,90.71
2023-05-07T22:21:06.361Z,90.92
2023-05-07T22:23:34.890Z,90.99
2023-05-07T22:26:11.668Z,90.65
2023-05-07T22:28:40.240Z,91.59
2023-05-07T22:31:08.788Z,92.38
2023-05-07T22:33:37.338Z,92.80
2023-05-07T22:36:07.924Z,91.71
2023-05-07T22:38:36.315Z,92.39
2023-05-07T22:41:06.047Z,96.21
2023-05-07T22:43:34.316Z,98.57
2023-05-07T22:46:03.102Z,99.50
2023-05-07T22:48:31.802Z,97.88
2023-05-07T22:51:00.094Z,95.69
2023-05-07T22:53:28.403Z,96.18
2023-05-07T22:55:56.862Z,94.04
2023-05-07T22:58:27.049Z,96.11
2023-05-07T23:00:55.393Z,98.55
2023-05-07T23:03:24.014Z,100.00
2023-05-07T23:05:53.607Z,99.89
2023-05-07T23:08:21.904Z,100.00
2023-05-07T23:10:50.244Z,100.00
2023-05-07T23:13:18.653Z,100.00
2023-05-07T23:15:48.357Z,100.00
2023-05-07T23:18:16.557Z,100.00
2023-05-07T23:20:44.967Z,100.00
2023-05-07T23:23:13.305Z,100.00
2023-05-07T23:25:41.644Z,100.00
2023-05-07T23:28:09.999Z,100.00
2023-05-07T23:30:38.207Z,100.00
2023-05-07T23:33:07.884Z,100.00
2023-05-07T23:35:36.140Z,100.00
2023-05-07T23:38:04.461Z,100.00
2023-05-07T23:40:32.669Z,100.00
2023-05-07T23:43:00.953Z,100.00
2023-05-07T23:45:29.199Z,100.00
2023-05-07T23:47:57.483Z,100.00
2023-05-07T23:50:27.037Z,100.00
2023-05-07T23:52:55.274Z,100.00
2023-05-07T23:55:23.518Z,100.00
2023-05-07T23:57:51.769Z,100.00
